22:31
Airports
History
Links
Donate
Help keep this website running!
PayPal
Bitcoin
Information on this page is community maintained and may be outdated or inaccurate and is intended for reference only or PC simulator navigating.
Always use approved charts for navigating.
SNPF
Fazenda Canabrava
Fazenda Canabrava (SNPF)
Parnarama, Maranhao, Brazil (65640)
4
Lat/Lng:5° 35' 28" S / 43° 19' 4" W
-5.591111 / -43.317778
Elevation:689'ft 210mMSL
ID / ICAO:SNPF
Runways:1
Longest:(04-22) 1,207.0m 3,960ft Gravel
Distance To
Airport ID:
Nearby WeatherUpdated 07-25-17 22:00 GMT
Nearby weather at SBTE, Senador Petronio Portella located 50.0 nautical miles from SNPF
Altimeter: 29.91
Visibility: 6.2 statute miles
Wind: 5 knots (190°)
Temp: 29°c 84°f
Humidity: 42.6%

METAR: SBTE 252200Z 19005KT CAVOK 29/15 Q1013

(Powered by phpweather)
Runway 04 / 22
Dimensions:1207 x 29.9m 3960' x 98'ft
Surface:Gravel
Runway 04 [A]Runway 22 [B]
Heading:018°TH 198°TH
Lat:
Lng:
5° 35' 46.47"S
43° 19' 10.16"W
5° 35' 9.53"S
43° 18' 57.84"W
User Notes and Comments
Google Map
Nearby Airports
4 Fazenda Olho D'Agua 15.8 NM
SIKZ WSW 250°
4 Fazenda Mata Escura 22.0 NM
SNIR WSW 241°
4 Fazenda Bacatuba 27.1 NM
SSDI W 260°
4 Fazenda Rio Largo 33.4 NM
SNIS NW 324°
(U) DOMINGOS REGO 46.7 NM
SNDR NE 40°
(C) Senador Petronio Portella 50.0 NM
SBTE (WX) NE 42°
(C) Caxias 50.1 NM
SNXS N 357°
VFR Chart
Flight Planning at SkyVector.com